sensor_id;sensor_type;location;lat;lon;timestamp;temperature;humidity
52125;DHT22;38119;52.710;6.398;2022-09-09T00:04:36;15.60;99.90
52125;DHT22;38119;52.710;6.398;2022-09-09T00:07:43;15.50;99.90
52125;DHT22;38119;52.710;6.398;2022-09-09T00:13:27;15.50;99.90
52125;DHT22;38119;52.710;6.398;2022-09-09T00:16:08;15.50;99.90
52125;DHT22;38119;52.710;6.398;2022-09-09T00:21:17;15.50;99.90
52125;DHT22;38119;52.710;6.398;2022-09-09T00:23:50;15.40;99.90
52125;DHT22;38119;52.710;6.398;2022-09-09T00:29:05;15.40;99.90
52125;DHT22;38119;52.710;6.398;2022-09-09T00:31:36;15.50;99.90
52125;DHT22;38119;52.710;6.398;2022-09-09T00:34:23;15.50;99.90
52125;DHT22;38119;52.710;6.398;2022-09-09T00:36:52;15.50;99.90
52125;DHT22;38119;52.710;6.398;2022-09-09T00:39:42;15.50;99.90
52125;DHT22;38119;52.710;6.398;2022-09-09T00:42:20;15.50;99.90
52125;DHT22;38119;52.710;6.398;2022-09-09T00:47:20;15.50;99.90
52125;DHT22;38119;52.710;6.398;2022-09-09T00:49:55;15.50;99.90
52125;DHT22;38119;52.710;6.398;2022-09-09T00:52:46;15.60;99.90
52125;DHT22;38119;52.710;6.398;2022-09-09T00:55:19;15.60;99.90
52125;DHT22;38119;52.710;6.398;2022-09-09T00:57:50;15.60;99.90
52125;DHT22;38119;52.710;6.398;2022-09-09T01:00:23;15.60;99.90
52125;DHT22;38119;52.710;6.398;2022-09-09T01:05:59;15.60;99.90
52125;DHT22;38119;52.710;6.398;2022-09-09T01:09:21;15.60;99.90
52125;DHT22;38119;52.710;6.398;2022-09-09T01:14:31;15.60;99.90
52125;DHT22;38119;52.710;6.398;2022-09-09T01:17:03;15.60;99.90
52125;DHT22;38119;52.710;6.398;2022-09-09T01:22:52;15.60;99.90
52125;DHT22;38119;52.710;6.398;2022-09-09T01:28:27;15.60;99.90
52125;DHT22;38119;52.710;6.398;2022-09-09T01:30:54;15.60;99.90
52125;DHT22;38119;52.710;6.398;2022-09-09T01:33:20;15.60;99.90
52125;DHT22;38119;52.710;6.398;2022-09-09T01:38:18;15.60;99.90
52125;DHT22;38119;52.710;6.398;2022-09-09T01:40:44;15.70;99.90
52125;DHT22;38119;52.710;6.398;2022-09-09T01:43:10;15.70;99.90
52125;DHT22;38119;52.710;6.398;2022-09-09T01:45:37;15.70;99.90
52125;DHT22;38119;52.710;6.398;2022-09-09T01:48:03;15.70;99.90
52125;DHT22;38119;52.710;6.398;2022-09-09T01:50:29;15.70;99.90
52125;DHT22;38119;52.710;6.398;2022-09-09T01:52:58;15.70;99.90
52125;DHT22;38119;52.710;6.398;2022-09-09T01:55:58;15.70;99.90
52125;DHT22;38119;52.710;6.398;2022-09-09T01:58:57;15.80;99.90
52125;DHT22;38119;52.710;6.398;2022-09-09T02:03:53;15.80;99.90
52125;DHT22;38119;52.710;6.398;2022-09-09T02:08:57;15.80;99.90
52125;DHT22;38119;52.710;6.398;2022-09-09T02:11:26;15.80;99.90
52125;DHT22;38119;52.710;6.398;2022-09-09T02:16:37;15.80;99.90
52125;DHT22;38119;52.710;6.398;2022-09-09T02:19:06;15.80;99.90
52125;DHT22;38119;52.710;6.398;2022-09-09T02:21:34;15.80;99.90
52125;DHT22;38119;52.710;6.398;2022-09-09T02:24:03;15.80;99.90
52125;DHT22;38119;52.710;6.398;2022-09-09T02:26:32;15.70;99.90
52125;DHT22;38119;52.710;6.398;2022-09-09T02:29:02;15.80;99.90
52125;DHT22;38119;52.710;6.398;2022-09-09T02:31:28;15.70;99.90
52125;DHT22;38119;52.710;6.398;2022-09-09T02:33:57;15.70;99.90
52125;DHT22;38119;52.710;6.398;2022-09-09T02:36:27;15.70;99.90
52125;DHT22;38119;52.710;6.398;2022-09-09T02:38:55;15.70;99.90
52125;DHT22;38119;52.710;6.398;2022-09-09T02:41:29;15.70;99.90
52125;DHT22;38119;52.710;6.398;2022-09-09T02:43:56;15.70;99.90
52125;DHT22;38119;52.710;6.398;2022-09-09T02:49:18;15.80;99.90
52125;DHT22;38119;52.710;6.398;2022-09-09T02:52:01;15.80;99.90
52125;DHT22;38119;52.710;6.398;2022-09-09T02:54:28;15.70;99.90
52125;DHT22;38119;52.710;6.398;2022-09-09T02:57:23;15.70;99.90
52125;DHT22;38119;52.710;6.398;2022-09-09T02:59:50;15.70;99.90
52125;DHT22;38119;52.710;6.398;2022-09-09T03:02:17;15.70;99.90
52125;DHT22;38119;52.710;6.398;2022-09-09T03:04:44;15.80;99.90
52125;DHT22;38119;52.710;6.398;2022-09-09T03:07:10;15.70;99.90
52125;DHT22;38119;52.710;6.398;2022-09-09T03:09:37;15.70;99.90
52125;DHT22;38119;52.710;6.398;2022-09-09T03:12:03;15.70;99.90
52125;DHT22;38119;52.710;6.398;2022-09-09T03:14:32;15.70;99.90
52125;DHT22;38119;52.710;6.398;2022-09-09T03:16:58;15.70;99.90
52125;DHT22;38119;52.710;6.398;2022-09-09T03:19:26;15.60;99.90
52125;DHT22;38119;52.710;6.398;2022-09-09T03:21:53;15.60;99.90
52125;DHT22;38119;52.710;6.398;2022-09-09T03:24:19;15.70;99.90
52125;DHT22;38119;52.710;6.398;2022-09-09T03:26:45;15.60;99.90
52125;DHT22;38119;52.710;6.398;2022-09-09T03:29:11;15.60;99.90
52125;DHT22;38119;52.710;6.398;2022-09-09T03:31:41;15.60;99.90
52125;DHT22;38119;52.710;6.398;2022-09-09T03:34:07;15.60;99.90
52125;DHT22;38119;52.710;6.398;2022-09-09T03:36:33;15.60;99.90
52125;DHT22;38119;52.710;6.398;2022-09-09T03:38:59;15.60;99.90
52125;DHT22;38119;52.710;6.398;2022-09-09T03:41:26;15.60;99.90
52125;DHT22;38119;52.710;6.398;2022-09-09T03:43:52;15.60;99.90
52125;DHT22;38119;52.710;6.398;2022-09-09T03:46:21;15.60;99.90
52125;DHT22;38119;52.710;6.398;2022-09-09T03:48:48;15.60;99.90
52125;DHT22;38119;52.710;6.398;2022-09-09T03:51:14;15.60;99.90
52125;DHT22;38119;52.710;6.398;2022-09-09T03:53:41;15.60;99.90
52125;DHT22;38119;52.710;6.398;2022-09-09T03:56:07;15.60;99.90
52125;DHT22;38119;52.710;6.398;2022-09-09T03:58:33;15.60;99.90
52125;DHT22;38119;52.710;6.398;2022-09-09T04:01:14;15.60;99.90
52125;DHT22;38119;52.710;6.398;2022-09-09T04:03:40;15.50;99.90
52125;DHT22;38119;52.710;6.398;2022-09-09T04:06:07;15.50;99.90
52125;DHT22;38119;52.710;6.398;2022-09-09T04:08:34;15.50;99.90
52125;DHT22;38119;52.710;6.398;2022-09-09T04:11:02;15.40;99.90
52125;DHT22;38119;52.710;6.398;2022-09-09T04:13:30;15.50;99.90
52125;DHT22;38119;52.710;6.398;2022-09-09T04:15:58;15.50;99.90
52125;DHT22;38119;52.710;6.398;2022-09-09T04:18:25;15.50;99.90
52125;DHT22;38119;52.710;6.398;2022-09-09T04:20:52;15.40;99.90
52125;DHT22;38119;52.710;6.398;2022-09-09T04:23:19;15.40;99.90
52125;DHT22;38119;52.710;6.398;2022-09-09T04:25:47;15.40;99.90
52125;DHT22;38119;52.710;6.398;2022-09-09T04:28:14;15.40;99.90
52125;DHT22;38119;52.710;6.398;2022-09-09T04:30:41;15.40;99.90
52125;DHT22;38119;52.710;6.398;2022-09-09T04:33:07;15.40;99.90
52125;DHT22;38119;52.710;6.398;2022-09-09T04:35:33;15.40;99.90
52125;DHT22;38119;52.710;6.398;2022-09-09T04:37:58;15.30;99.90
52125;DHT22;38119;52.710;6.398;2022-09-09T04:40:24;15.30;99.90
52125;DHT22;38119;52.710;6.398;2022-09-09T04:42:50;15.30;99.90
52125;DHT22;38119;52.710;6.398;2022-09-09T04:45:16;15.20;99.90
52125;DHT22;38119;52.710;6.398;2022-09-09T04:47:42;15.30;99.90
52125;DHT22;38119;52.710;6.398;2022-09-09T04:50:08;15.30;99.90
52125;DHT22;38119;52.710;6.398;2022-09-09T04:52:37;15.20;99.90
52125;DHT22;38119;52.710;6.398;2022-09-09T04:55:03;15.20;99.90
52125;DHT22;38119;52.710;6.398;2022-09-09T04:57:29;15.20;99.90
52125;DHT22;38119;52.710;6.398;2022-09-09T04:59:58;15.10;99.90
52125;DHT22;38119;52.710;6.398;2022-09-09T05:02:25;15.10;99.90
52125;DHT22;38119;52.710;6.398;2022-09-09T05:04:51;15.10;99.90
52125;DHT22;38119;52.710;6.398;2022-09-09T05:07:17;15.10;99.90
52125;DHT22;38119;52.710;6.398;2022-09-09T05:09:42;15.10;99.90
52125;DHT22;38119;52.710;6.398;2022-09-09T05:12:08;15.10;99.90
52125;DHT22;38119;52.710;6.398;2022-09-09T05:14:34;15.10;99.90
52125;DHT22;38119;52.710;6.398;2022-09-09T05:17:02;15.10;99.90
52125;DHT22;38119;52.710;6.398;2022-09-09T05:19:28;15.10;99.90
52125;DHT22;38119;52.710;6.398;2022-09-09T05:21:54;15.00;99.90
52125;DHT22;38119;52.710;6.398;2022-09-09T05:24:19;15.00;99.90
52125;DHT22;38119;52.710;6.398;2022-09-09T05:26:45;15.10;99.90
52125;DHT22;38119;52.710;6.398;2022-09-09T05:29:11;15.00;99.90
52125;DHT22;38119;52.710;6.398;2022-09-09T05:31:36;15.00;99.90
52125;DHT22;38119;52.710;6.398;2022-09-09T05:34:02;15.10;99.90
52125;DHT22;38119;52.710;6.398;2022-09-09T05:36:28;15.00;99.90
52125;DHT22;38119;52.710;6.398;2022-09-09T05:38:53;15.10;99.90
52125;DHT22;38119;52.710;6.398;2022-09-09T05:41:19;15.10;99.90
52125;DHT22;38119;52.710;6.398;2022-09-09T05:43:45;15.10;99.90
52125;DHT22;38119;52.710;6.398;2022-09-09T05:46:23;15.10;99.90
52125;DHT22;38119;52.710;6.398;2022-09-09T05:48:50;15.20;99.90
52125;DHT22;38119;52.710;6.398;2022-09-09T05:51:25;15.20;99.90
52125;DHT22;38119;52.710;6.398;2022-09-09T05:53:52;15.20;99.90
52125;DHT22;38119;52.710;6.398;2022-09-09T05:56:20;15.20;99.90
52125;DHT22;38119;52.710;6.398;2022-09-09T05:58:48;15.20;99.90
52125;DHT22;38119;52.710;6.398;2022-09-09T06:01:20;15.20;99.90
52125;DHT22;38119;52.710;6.398;2022-09-09T06:03:47;15.20;99.90
52125;DHT22;38119;52.710;6.398;2022-09-09T06:06:18;15.30;99.90
52125;DHT22;38119;52.710;6.398;2022-09-09T06:08:46;15.30;99.90
52125;DHT22;38119;52.710;6.398;2022-09-09T06:11:30;15.30;99.90
52125;DHT22;38119;52.710;6.398;2022-09-09T06:13:59;15.30;99.90
52125;DHT22;38119;52.710;6.398;2022-09-09T06:16:27;15.30;99.90
52125;DHT22;38119;52.710;6.398;2022-09-09T06:18:54;15.40;99.90
52125;DHT22;38119;52.710;6.398;2022-09-09T06:21:28;15.40;99.90
52125;DHT22;38119;52.710;6.398;2022-09-09T06:23:55;15.40;99.90
52125;DHT22;38119;52.710;6.398;2022-09-09T06:26:23;15.40;99.90
52125;DHT22;38119;52.710;6.398;2022-09-09T06:28:50;15.40;99.90
52125;DHT22;38119;52.710;6.398;2022-09-09T06:31:20;15.40;99.90
52125;DHT22;38119;52.710;6.398;2022-09-09T06:33:47;15.40;99.90
52125;DHT22;38119;52.710;6.398;2022-09-09T06:36:23;15.40;99.90
52125;DHT22;38119;52.710;6.398;2022-09-09T06:38:49;15.40;99.90
52125;DHT22;38119;52.710;6.398;2022-09-09T06:41:16;15.50;99.90
52125;DHT22;38119;52.710;6.398;2022-09-09T06:43:44;15.50;99.90
52125;DHT22;38119;52.710;6.398;2022-09-09T06:46:14;15.60;99.90
52125;DHT22;38119;52.710;6.398;2022-09-09T06:48:41;15.60;99.90
52125;DHT22;38119;52.710;6.398;2022-09-09T06:51:15;15.60;99.90
52125;DHT22;38119;52.710;6.398;2022-09-09T06:53:45;15.60;99.90
52125;DHT22;38119;52.710;6.398;2022-09-09T06:56:18;15.70;99.90
52125;DHT22;38119;52.710;6.398;2022-09-09T06:58:44;15.70;99.90
52125;DHT22;38119;52.710;6.398;2022-09-09T07:01:16;15.70;99.90
52125;DHT22;38119;52.710;6.398;2022-09-09T07:03:44;15.80;99.90
52125;DHT22;38119;52.710;6.398;2022-09-09T07:06:30;15.80;99.90
52125;DHT22;38119;52.710;6.398;2022-09-09T07:09:01;15.80;99.90
52125;DHT22;38119;52.710;6.398;2022-09-09T07:11:31;15.80;99.90
52125;DHT22;38119;52.710;6.398;2022-09-09T07:13:58;15.80;99.90
52125;DHT22;38119;52.710;6.398;2022-09-09T07:16:24;15.80;99.90
52125;DHT22;38119;52.710;6.398;2022-09-09T07:18:52;15.80;99.90
52125;DHT22;38119;52.710;6.398;2022-09-09T07:21:18;15.80;99.90
52125;DHT22;38119;52.710;6.398;2022-09-09T07:23:46;15.90;99.90
52125;DHT22;38119;52.710;6.398;2022-09-09T07:26:14;15.90;99.90
52125;DHT22;38119;52.710;6.398;2022-09-09T07:28:40;15.90;99.90
52125;DHT22;38119;52.710;6.398;2022-09-09T07:31:12;15.90;99.90
52125;DHT22;38119;52.710;6.398;2022-09-09T07:33:39;15.90;99.90
52125;DHT22;38119;52.710;6.398;2022-09-09T07:36:07;15.90;99.90
52125;DHT22;38119;52.710;6.398;2022-09-09T07:38:44;16.00;99.90
52125;DHT22;38119;52.710;6.398;2022-09-09T07:41:13;16.00;99.90
52125;DHT22;38119;52.710;6.398;2022-09-09T07:43:41;16.10;99.90
52125;DHT22;38119;52.710;6.398;2022-09-09T07:46:07;16.10;99.90
52125;DHT22;38119;52.710;6.398;2022-09-09T07:48:33;16.20;99.90
52125;DHT22;38119;52.710;6.398;2022-09-09T07:51:20;16.20;99.90
52125;DHT22;38119;52.710;6.398;2022-09-09T07:53:48;16.20;99.90
52125;DHT22;38119;52.710;6.398;2022-09-09T07:56:17;16.20;99.90
52125;DHT22;38119;52.710;6.398;2022-09-09T07:58:47;16.20;99.90
52125;DHT22;38119;52.710;6.398;2022-09-09T08:01:19;16.20;99.90
52125;DHT22;38119;52.710;6.398;2022-09-09T08:03:46;16.30;99.90
52125;DHT22;38119;52.710;6.398;2022-09-09T08:06:13;16.40;99.90
52125;DHT22;38119;52.710;6.398;2022-09-09T08:08:39;16.40;99.90
52125;DHT22;38119;52.710;6.398;2022-09-09T08:11:11;16.50;99.90
52125;DHT22;38119;52.710;6.398;2022-09-09T08:13:38;16.50;99.90
52125;DHT22;38119;52.710;6.398;2022-09-09T08:16:15;16.60;99.90
52125;DHT22;38119;52.710;6.398;2022-09-09T08:18:42;16.60;99.90
52125;DHT22;38119;52.710;6.398;2022-09-09T08:21:12;16.60;99.90
52125;DHT22;38119;52.710;6.398;2022-09-09T08:23:42;16.70;99.90
52125;DHT22;38119;52.710;6.398;2022-09-09T08:26:12;16.70;99.90
52125;DHT22;38119;52.710;6.398;2022-09-09T08:28:39;16.80;99.90
52125;DHT22;38119;52.710;6.398;2022-09-09T08:31:11;16.80;99.90
52125;DHT22;38119;52.710;6.398;2022-09-09T08:33:37;16.90;99.90
52125;DHT22;38119;52.710;6.398;2022-09-09T08:36:05;16.90;99.90
52125;DHT22;38119;52.710;6.398;2022-09-09T08:38:31;17.00;99.90
52125;DHT22;38119;52.710;6.398;2022-09-09T08:43:35;17.00;99.90
52125;DHT22;38119;52.710;6.398;2022-09-09T08:46:10;17.00;99.90
52125;DHT22;38119;52.710;6.398;2022-09-09T08:48:43;17.00;99.90
52125;DHT22;38119;52.710;6.398;2022-09-09T08:51:11;17.00;99.90
52125;DHT22;38119;52.710;6.398;2022-09-09T08:53:42;17.10;99.90
52125;DHT22;38119;52.710;6.398;2022-09-09T08:56:13;17.10;99.90
52125;DHT22;38119;52.710;6.398;2022-09-09T08:58:52;17.30;99.90
52125;DHT22;38119;52.710;6.398;2022-09-09T09:01:54;17.30;99.90
52125;DHT22;38119;52.710;6.398;2022-09-09T09:12:58;17.50;99.90
52125;DHT22;38119;52.710;6.398;2022-09-09T09:15:31;17.50;99.90
52125;DHT22;38119;52.710;6.398;2022-09-09T09:18:03;17.50;99.90
52125;DHT22;38119;52.710;6.398;2022-09-09T09:20:50;17.60;99.90
52125;DHT22;38119;52.710;6.398;2022-09-09T09:23:26;17.70;99.90
52125;DHT22;38119;52.710;6.398;2022-09-09T09:26:00;17.70;99.90
52125;DHT22;38119;52.710;6.398;2022-09-09T09:28:30;17.80;99.90
52125;DHT22;38119;52.710;6.398;2022-09-09T09:31:00;17.90;99.90
52125;DHT22;38119;52.710;6.398;2022-09-09T09:33:52;17.90;99.90
52125;DHT22;38119;52.710;6.398;2022-09-09T09:36:54;17.90;99.90
52125;DHT22;38119;52.710;6.398;2022-09-09T09:39:31;17.90;99.90
52125;DHT22;38119;52.710;6.398;2022-09-09T09:42:10;18.00;99.90
52125;DHT22;38119;52.710;6.398;2022-09-09T09:44:40;17.90;99.90
52125;DHT22;38119;52.710;6.398;2022-09-09T09:47:20;17.80;99.90
52125;DHT22;38119;52.710;6.398;2022-09-09T09:50:00;17.90;99.90
52125;DHT22;38119;52.710;6.398;2022-09-09T09:52:28;17.90;99.90
52125;DHT22;38119;52.710;6.398;2022-09-09T09:54:56;18.00;99.90
52125;DHT22;38119;52.710;6.398;2022-09-09T09:57:27;18.00;99.90
52125;DHT22;38119;52.710;6.398;2022-09-09T10:00:14;18.10;99.90
52125;DHT22;38119;52.710;6.398;2022-09-09T10:02:43;18.10;99.90
52125;DHT22;38119;52.710;6.398;2022-09-09T10:07:44;18.20;99.90
52125;DHT22;38119;52.710;6.398;2022-09-09T10:10:23;18.30;99.90
52125;DHT22;38119;52.710;6.398;2022-09-09T10:13:06;18.40;99.90
52125;DHT22;38119;52.710;6.398;2022-09-09T10:15:52;18.50;99.90
52125;DHT22;38119;52.710;6.398;2022-09-09T10:21:19;18.70;99.90
52125;DHT22;38119;52.710;6.398;2022-09-09T10:46:05;18.30;99.90
52125;DHT22;38119;52.710;6.398;2022-09-09T10:49:30;18.20;99.90
52125;DHT22;38119;52.710;6.398;2022-09-09T10:54:31;18.20;99.90
52125;DHT22;38119;52.710;6.398;2022-09-09T10:57:17;18.20;99.90
52125;DHT22;38119;52.710;6.398;2022-09-09T10:59:50;18.20;99.90
52125;DHT22;38119;52.710;6.398;2022-09-09T11:02:28;18.20;99.90
52125;DHT22;38119;52.710;6.398;2022-09-09T11:05:05;18.20;99.90
52125;DHT22;38119;52.710;6.398;2022-09-09T11:07:41;18.20;99.90
52125;DHT22;38119;52.710;6.398;2022-09-09T11:10:34;18.20;99.90
52125;DHT22;38119;52.710;6.398;2022-09-09T11:13:09;18.10;99.90
52125;DHT22;38119;52.710;6.398;2022-09-09T11:15:40;18.10;99.90
52125;DHT22;38119;52.710;6.398;2022-09-09T11:18:13;18.10;99.90
52125;DHT22;38119;52.710;6.398;2022-09-09T11:20:40;18.10;99.90
52125;DHT22;38119;52.710;6.398;2022-09-09T11:23:12;18.10;99.90
52125;DHT22;38119;52.710;6.398;2022-09-09T11:25:39;18.10;99.90
52125;DHT22;38119;52.710;6.398;2022-09-09T11:36:15;18.50;99.90
52125;DHT22;38119;52.710;6.398;2022-09-09T11:38:52;18.60;99.90
52125;DHT22;38119;52.710;6.398;2022-09-09T11:41:20;18.70;99.90
52125;DHT22;38119;52.710;6.398;2022-09-09T11:43:50;18.70;99.90
52125;DHT22;38119;52.710;6.398;2022-09-09T11:46:21;18.60;99.90
52125;DHT22;38119;52.710;6.398;2022-09-09T11:49:02;18.70;99.90
52125;DHT22;38119;52.710;6.398;2022-09-09T11:51:30;18.90;99.90
52125;DHT22;38119;52.710;6.398;2022-09-09T11:56:55;19.10;99.90
52125;DHT22;38119;52.710;6.398;2022-09-09T11:59:27;19.10;99.90
52125;DHT22;38119;52.710;6.398;2022-09-09T12:07:00;19.00;99.90
52125;DHT22;38119;52.710;6.398;2022-09-09T12:14:59;19.00;99.90
52125;DHT22;38119;52.710;6.398;2022-09-09T12:17:27;19.20;99.90
52125;DHT22;38119;52.710;6.398;2022-09-09T12:20:09;19.30;99.90
52125;DHT22;38119;52.710;6.398;2022-09-09T12:23:03;19.40;99.90
52125;DHT22;38119;52.710;6.398;2022-09-09T12:28:09;19.30;99.90
52125;DHT22;38119;52.710;6.398;2022-09-09T12:31:56;19.40;99.90
52125;DHT22;38119;52.710;6.398;2022-09-09T12:33:48;19.50;99.90
52125;DHT22;38119;52.710;6.398;2022-09-09T12:36:21;19.60;99.90
52125;DHT22;38119;52.710;6.398;2022-09-09T12:38:48;19.80;99.90
52125;DHT22;38119;52.710;6.398;2022-09-09T12:43:45;19.80;99.90
52125;DHT22;38119;52.710;6.398;2022-09-09T12:46:20;19.70;99.90
52125;DHT22;38119;52.710;6.398;2022-09-09T12:48:48;19.70;99.90
52125;DHT22;38119;52.710;6.398;2022-09-09T12:51:29;19.70;99.90
52125;DHT22;38119;52.710;6.398;2022-09-09T12:53:56;19.60;99.90
52125;DHT22;38119;52.710;6.398;2022-09-09T12:56:27;19.60;99.90
52125;DHT22;38119;52.710;6.398;2022-09-09T12:58:56;19.80;99.90
52125;DHT22;38119;52.710;6.398;2022-09-09T13:01:29;20.00;99.90
52125;DHT22;38119;52.710;6.398;2022-09-09T13:03:55;20.10;99.90
52125;DHT22;38119;52.710;6.398;2022-09-09T13:06:27;20.10;99.90
52125;DHT22;38119;52.710;6.398;2022-09-09T13:08:54;20.10;99.90
52125;DHT22;38119;52.710;6.398;2022-09-09T13:13:55;20.00;99.90
52125;DHT22;38119;52.710;6.398;2022-09-09T13:16:29;19.90;99.90
52125;DHT22;38119;52.710;6.398;2022-09-09T13:19:00;19.80;99.90
52125;DHT22;38119;52.710;6.398;2022-09-09T13:21:39;19.60;99.90
52125;DHT22;38119;52.710;6.398;2022-09-09T13:24:19;19.30;99.90
52125;DHT22;38119;52.710;6.398;2022-09-09T13:26:55;19.00;99.90
52125;DHT22;38119;52.710;6.398;2022-09-09T13:29:22;18.80;99.90
52125;DHT22;38119;52.710;6.398;2022-09-09T13:31:48;18.80;99.90
52125;DHT22;38119;52.710;6.398;2022-09-09T13:34:29;18.90;99.90
52125;DHT22;38119;52.710;6.398;2022-09-09T13:37:06;19.00;99.90
52125;DHT22;38119;52.710;6.398;2022-09-09T13:39:36;19.10;99.90
52125;DHT22;38119;52.710;6.398;2022-09-09T13:42:03;19.10;99.90
52125;DHT22;38119;52.710;6.398;2022-09-09T13:44:33;19.10;99.90
52125;DHT22;38119;52.710;6.398;2022-09-09T13:47:03;19.10;99.90
52125;DHT22;38119;52.710;6.398;2022-09-09T13:49:30;19.20;99.90
52125;DHT22;38119;52.710;6.398;2022-09-09T13:52:13;19.20;99.90
52125;DHT22;38119;52.710;6.398;2022-09-09T13:54:42;19.30;99.90
52125;DHT22;38119;52.710;6.398;2022-09-09T13:57:34;19.40;99.90
52125;DHT22;38119;52.710;6.398;2022-09-09T14:00:01;19.50;99.90
52125;DHT22;38119;52.710;6.398;2022-09-09T14:02:26;19.50;99.90
52125;DHT22;38119;52.710;6.398;2022-09-09T14:04:52;19.50;99.90
52125;DHT22;38119;52.710;6.398;2022-09-09T14:07:20;19.60;99.90
52125;DHT22;38119;52.710;6.398;2022-09-09T14:09:46;19.70;99.90
52125;DHT22;38119;52.710;6.398;2022-09-09T14:12:15;19.80;99.90
52125;DHT22;38119;52.710;6.398;2022-09-09T14:14:41;19.90;99.90
52125;DHT22;38119;52.710;6.398;2022-09-09T14:17:08;19.90;99.90
52125;DHT22;38119;52.710;6.398;2022-09-09T14:19:34;19.90;99.90
52125;DHT22;38119;52.710;6.398;2022-09-09T14:22:00;19.90;99.90
52125;DHT22;38119;52.710;6.398;2022-09-09T14:24:26;19.90;99.90
52125;DHT22;38119;52.710;6.398;2022-09-09T14:26:53;19.90;99.90
52125;DHT22;38119;52.710;6.398;2022-09-09T14:29:19;19.90;99.90
52125;DHT22;38119;52.710;6.398;2022-09-09T14:31:45;19.90;99.90
52125;DHT22;38119;52.710;6.398;2022-09-09T14:34:11;19.90;99.90
52125;DHT22;38119;52.710;6.398;2022-09-09T14:36:37;19.80;99.90
52125;DHT22;38119;52.710;6.398;2022-09-09T14:39:03;19.80;99.90
52125;DHT22;38119;52.710;6.398;2022-09-09T14:41:30;19.70;99.90
52125;DHT22;38119;52.710;6.398;2022-09-09T14:43:55;19.60;99.90
52125;DHT22;38119;52.710;6.398;2022-09-09T14:46:21;19.50;99.90
52125;DHT22;38119;52.710;6.398;2022-09-09T14:48:47;19.40;99.90
52125;DHT22;38119;52.710;6.398;2022-09-09T14:51:22;19.40;99.90
52125;DHT22;38119;52.710;6.398;2022-09-09T14:53:51;19.30;99.90
52125;DHT22;38119;52.710;6.398;2022-09-09T14:56:20;19.20;99.90
52125;DHT22;38119;52.710;6.398;2022-09-09T14:58:48;19.10;99.90
52125;DHT22;38119;52.710;6.398;2022-09-09T15:01:16;19.10;99.90
52125;DHT22;38119;52.710;6.398;2022-09-09T15:03:47;19.10;99.90
52125;DHT22;38119;52.710;6.398;2022-09-09T15:06:14;19.10;99.90
52125;DHT22;38119;52.710;6.398;2022-09-09T15:08:44;19.10;99.90
52125;DHT22;38119;52.710;6.398;2022-09-09T15:11:12;19.10;99.90
52125;DHT22;38119;52.710;6.398;2022-09-09T15:13:39;19.10;99.90
52125;DHT22;38119;52.710;6.398;2022-09-09T15:16:14;19.00;99.90
52125;DHT22;38119;52.710;6.398;2022-09-09T15:18:40;18.90;99.90
52125;DHT22;38119;52.710;6.398;2022-09-09T15:21:11;18.90;99.90
52125;DHT22;38119;52.710;6.398;2022-09-09T15:23:37;18.70;99.90
52125;DHT22;38119;52.710;6.398;2022-09-09T15:26:03;18.70;99.90
52125;DHT22;38119;52.710;6.398;2022-09-09T15:28:31;18.60;99.90
52125;DHT22;38119;52.710;6.398;2022-09-09T15:30:57;18.50;99.90
52125;DHT22;38119;52.710;6.398;2022-09-09T15:33:23;18.40;99.90
52125;DHT22;38119;52.710;6.398;2022-09-09T15:35:49;18.40;99.90
52125;DHT22;38119;52.710;6.398;2022-09-09T15:38:15;18.40;99.90
52125;DHT22;38119;52.710;6.398;2022-09-09T15:40:42;18.50;99.90
52125;DHT22;38119;52.710;6.398;2022-09-09T15:43:08;18.50;99.90
52125;DHT22;38119;52.710;6.398;2022-09-09T15:45:36;18.50;99.90
52125;DHT22;38119;52.710;6.398;2022-09-09T15:48:02;18.50;99.90
52125;DHT22;38119;52.710;6.398;2022-09-09T15:50:28;18.60;99.90
52125;DHT22;38119;52.710;6.398;2022-09-09T15:52:57;18.60;99.90
52125;DHT22;38119;52.710;6.398;2022-09-09T15:55:22;18.50;99.90
52125;DHT22;38119;52.710;6.398;2022-09-09T15:57:49;18.50;99.90
52125;DHT22;38119;52.710;6.398;2022-09-09T16:00:17;18.60;99.90
52125;DHT22;38119;52.710;6.398;2022-09-09T16:02:43;18.60;99.90
52125;DHT22;38119;52.710;6.398;2022-09-09T16:05:09;18.60;99.90
52125;DHT22;38119;52.710;6.398;2022-09-09T16:07:35;18.60;99.90
52125;DHT22;38119;52.710;6.398;2022-09-09T16:10:01;18.60;99.90
52125;DHT22;38119;52.710;6.398;2022-09-09T16:12:27;18.70;99.90
52125;DHT22;38119;52.710;6.398;2022-09-09T16:14:53;18.60;99.90
52125;DHT22;38119;52.710;6.398;2022-09-09T16:17:19;18.60;99.90
52125;DHT22;38119;52.710;6.398;2022-09-09T16:19:45;18.50;99.90
52125;DHT22;38119;52.710;6.398;2022-09-09T16:22:11;18.50;99.90
52125;DHT22;38119;52.710;6.398;2022-09-09T16:24:37;18.50;99.90
52125;DHT22;38119;52.710;6.398;2022-09-09T16:27:03;18.40;99.90
52125;DHT22;38119;52.710;6.398;2022-09-09T16:29:29;18.40;99.90
52125;DHT22;38119;52.710;6.398;2022-09-09T16:31:55;18.40;99.90
52125;DHT22;38119;52.710;6.398;2022-09-09T16:34:21;18.40;99.90
52125;DHT22;38119;52.710;6.398;2022-09-09T16:36:48;18.30;99.90
52125;DHT22;38119;52.710;6.398;2022-09-09T16:39:18;18.40;99.90
52125;DHT22;38119;52.710;6.398;2022-09-09T16:41:46;18.40;99.90
52125;DHT22;38119;52.710;6.398;2022-09-09T16:44:14;18.40;99.90
52125;DHT22;38119;52.710;6.398;2022-09-09T16:46:42;18.30;99.90
52125;DHT22;38119;52.710;6.398;2022-09-09T16:49:10;18.30;99.90
52125;DHT22;38119;52.710;6.398;2022-09-09T16:51:39;18.30;99.90
52125;DHT22;38119;52.710;6.398;2022-09-09T16:54:07;18.20;99.90
52125;DHT22;38119;52.710;6.398;2022-09-09T16:56:34;18.20;99.90
52125;DHT22;38119;52.710;6.398;2022-09-09T16:59:07;18.20;99.90
52125;DHT22;38119;52.710;6.398;2022-09-09T17:01:36;18.10;99.90
52125;DHT22;38119;52.710;6.398;2022-09-09T17:04:09;18.10;99.90
52125;DHT22;38119;52.710;6.398;2022-09-09T17:06:36;18.10;99.90
52125;DHT22;38119;52.710;6.398;2022-09-09T17:09:09;18.10;99.90
52125;DHT22;38119;52.710;6.398;2022-09-09T17:11:37;18.00;99.90
52125;DHT22;38119;52.710;6.398;2022-09-09T17:14:03;18.00;99.90
52125;DHT22;38119;52.710;6.398;2022-09-09T17:16:31;18.00;99.90
52125;DHT22;38119;52.710;6.398;2022-09-09T17:18:57;18.00;99.90
52125;DHT22;38119;52.710;6.398;2022-09-09T17:21:25;18.00;99.90
52125;DHT22;38119;52.710;6.398;2022-09-09T17:23:52;17.90;99.90
52125;DHT22;38119;52.710;6.398;2022-09-09T17:26:21;17.90;99.90
52125;DHT22;38119;52.710;6.398;2022-09-09T17:28:47;17.90;99.90
52125;DHT22;38119;52.710;6.398;2022-09-09T17:31:17;17.90;99.90
52125;DHT22;38119;52.710;6.398;2022-09-09T17:33:45;17.90;99.90
52125;DHT22;38119;52.710;6.398;2022-09-09T17:36:15;17.90;99.90
52125;DHT22;38119;52.710;6.398;2022-09-09T17:38:41;17.90;99.90
52125;DHT22;38119;52.710;6.398;2022-09-09T17:41:16;17.90;99.90